sensor_id;sensor_type;location;lat;lon;timestamp;P1;durP1;ratioP1;P2;durP2;ratioP2
56637;SDS011;42507;51.982;20.140;2024-01-11T00:01:48;92.30;;;34.50;;
56637;SDS011;42507;51.982;20.140;2024-01-11T00:04:14;85.80;;;32.50;;
56637;SDS011;42507;51.982;20.140;2024-01-11T00:06:41;80.60;;;32.10;;
56637;SDS011;42507;51.982;20.140;2024-01-11T00:09:08;81.00;;;30.50;;
56637;SDS011;42507;51.982;20.140;2024-01-11T00:11:33;87.20;;;33.80;;
56637;SDS011;42507;51.982;20.140;2024-01-11T00:14:00;88.40;;;32.30;;
56637;SDS011;42507;51.982;20.140;2024-01-11T00:16:25;84.30;;;32.70;;
56637;SDS011;42507;51.982;20.140;2024-01-11T00:18:52;86.00;;;33.30;;
56637;SDS011;42507;51.982;20.140;2024-01-11T00:21:18;82.20;;;32.40;;
56637;SDS011;42507;51.982;20.140;2024-01-11T00:23:44;87.00;;;35.00;;
56637;SDS011;42507;51.982;20.140;2024-01-11T00:26:12;86.50;;;33.60;;
56637;SDS011;42507;51.982;20.140;2024-01-11T00:28:38;86.80;;;33.90;;
56637;SDS011;42507;51.982;20.140;2024-01-11T00:31:04;91.80;;;34.90;;
56637;SDS011;42507;51.982;20.140;2024-01-11T00:33:30;87.20;;;32.80;;
56637;SDS011;42507;51.982;20.140;2024-01-11T00:35:56;90.90;;;32.00;;
56637;SDS011;42507;51.982;20.140;2024-01-11T00:38:23;89.00;;;33.10;;
56637;SDS011;42507;51.982;20.140;2024-01-11T00:40:49;86.30;;;32.20;;
56637;SDS011;42507;51.982;20.140;2024-01-11T00:43:15;81.80;;;31.00;;
56637;SDS011;42507;51.982;20.140;2024-01-11T00:45:41;76.80;;;30.40;;
56637;SDS011;42507;51.982;20.140;2024-01-11T00:48:07;81.00;;;29.60;;
56637;SDS011;42507;51.982;20.140;2024-01-11T00:50:33;81.40;;;30.90;;
56637;SDS011;42507;51.982;20.140;2024-01-11T00:52:59;73.20;;;25.60;;
56637;SDS011;42507;51.982;20.140;2024-01-11T00:55:26;65.20;;;26.30;;
56637;SDS011;42507;51.982;20.140;2024-01-11T00:57:52;68.20;;;26.90;;
56637;SDS011;42507;51.982;20.140;2024-01-11T01:00:18;81.40;;;29.90;;
56637;SDS011;42507;51.982;20.140;2024-01-11T01:02:44;68.90;;;25.90;;
56637;SDS011;42507;51.982;20.140;2024-01-11T01:05:10;68.20;;;26.20;;
56637;SDS011;42507;51.982;20.140;2024-01-11T01:07:36;69.20;;;26.70;;
56637;SDS011;42507;51.982;20.140;2024-01-11T01:10:02;65.80;;;24.90;;
56637;SDS011;42507;51.982;20.140;2024-01-11T01:12:28;56.60;;;22.80;;
56637;SDS011;42507;51.982;20.140;2024-01-11T01:14:54;63.60;;;25.20;;
56637;SDS011;42507;51.982;20.140;2024-01-11T01:17:24;68.60;;;25.70;;
56637;SDS011;42507;51.982;20.140;2024-01-11T01:19:50;60.90;;;24.50;;
56637;SDS011;42507;51.982;20.140;2024-01-11T01:22:16;65.70;;;25.10;;
56637;SDS011;42507;51.982;20.140;2024-01-11T01:24:42;64.80;;;24.10;;
56637;SDS011;42507;51.982;20.140;2024-01-11T01:27:08;70.40;;;25.40;;
56637;SDS011;42507;51.982;20.140;2024-01-11T01:29:34;66.50;;;25.10;;
56637;SDS011;42507;51.982;20.140;2024-01-11T01:31:59;66.50;;;28.00;;
56637;SDS011;42507;51.982;20.140;2024-01-11T01:34:25;58.00;;;22.80;;
56637;SDS011;42507;51.982;20.140;2024-01-11T01:36:51;60.80;;;24.80;;
56637;SDS011;42507;51.982;20.140;2024-01-11T01:39:17;64.40;;;23.50;;
56637;SDS011;42507;51.982;20.140;2024-01-11T01:41:43;66.50;;;24.90;;
56637;SDS011;42507;51.982;20.140;2024-01-11T01:44:09;68.70;;;24.90;;
56637;SDS011;42507;51.982;20.140;2024-01-11T01:46:35;61.40;;;23.80;;
56637;SDS011;42507;51.982;20.140;2024-01-11T01:49:01;65.60;;;24.80;;
56637;SDS011;42507;51.982;20.140;2024-01-11T01:51:28;53.50;;;21.30;;
56637;SDS011;42507;51.982;20.140;2024-01-11T01:53:55;62.70;;;24.20;;
56637;SDS011;42507;51.982;20.140;2024-01-11T01:56:22;68.60;;;24.40;;
56637;SDS011;42507;51.982;20.140;2024-01-11T01:58:51;73.90;;;26.90;;
56637;SDS011;42507;51.982;20.140;2024-01-11T02:01:18;62.00;;;24.70;;
56637;SDS011;42507;51.982;20.140;2024-01-11T02:03:45;66.40;;;24.40;;
56637;SDS011;42507;51.982;20.140;2024-01-11T02:06:11;62.70;;;24.80;;
56637;SDS011;42507;51.982;20.140;2024-01-11T02:08:39;64.30;;;25.80;;
56637;SDS011;42507;51.982;20.140;2024-01-11T02:11:07;56.60;;;21.20;;
56637;SDS011;42507;51.982;20.140;2024-01-11T02:13:33;69.80;;;26.20;;
56637;SDS011;42507;51.982;20.140;2024-01-11T02:15:59;66.50;;;26.40;;
56637;SDS011;42507;51.982;20.140;2024-01-11T02:18:25;71.10;;;27.10;;
56637;SDS011;42507;51.982;20.140;2024-01-11T02:20:51;68.00;;;26.40;;
56637;SDS011;42507;51.982;20.140;2024-01-11T02:23:17;61.70;;;24.10;;
56637;SDS011;42507;51.982;20.140;2024-01-11T02:25:45;71.80;;;26.10;;
56637;SDS011;42507;51.982;20.140;2024-01-11T02:28:11;66.30;;;26.50;;
56637;SDS011;42507;51.982;20.140;2024-01-11T02:30:37;71.80;;;27.30;;
56637;SDS011;42507;51.982;20.140;2024-01-11T02:33:04;63.40;;;25.50;;
56637;SDS011;42507;51.982;20.140;2024-01-11T02:35:30;68.90;;;27.80;;
56637;SDS011;42507;51.982;20.140;2024-01-11T02:37:57;70.00;;;28.20;;
56637;SDS011;42507;51.982;20.140;2024-01-11T02:40:24;67.20;;;27.30;;
56637;SDS011;42507;51.982;20.140;2024-01-11T02:42:51;67.10;;;27.30;;
56637;SDS011;42507;51.982;20.140;2024-01-11T02:45:17;66.20;;;26.80;;
56637;SDS011;42507;51.982;20.140;2024-01-11T02:47:44;65.00;;;26.10;;
56637;SDS011;42507;51.982;20.140;2024-01-11T02:50:10;71.20;;;27.60;;
56637;SDS011;42507;51.982;20.140;2024-01-11T02:52:38;65.70;;;24.10;;
56637;SDS011;42507;51.982;20.140;2024-01-11T02:55:04;66.80;;;27.30;;
56637;SDS011;42507;51.982;20.140;2024-01-11T02:57:31;65.80;;;23.50;;
56637;SDS011;42507;51.982;20.140;2024-01-11T02:59:56;62.70;;;24.30;;
56637;SDS011;42507;51.982;20.140;2024-01-11T03:02:22;63.80;;;24.00;;
56637;SDS011;42507;51.982;20.140;2024-01-11T03:04:48;54.70;;;23.30;;
56637;SDS011;42507;51.982;20.140;2024-01-11T03:07:14;70.50;;;25.50;;
56637;SDS011;42507;51.982;20.140;2024-01-11T03:09:40;63.90;;;23.90;;
56637;SDS011;42507;51.982;20.140;2024-01-11T03:12:06;66.20;;;24.50;;
56637;SDS011;42507;51.982;20.140;2024-01-11T03:14:32;65.30;;;24.80;;
56637;SDS011;42507;51.982;20.140;2024-01-11T03:16:59;67.60;;;25.80;;
56637;SDS011;42507;51.982;20.140;2024-01-11T03:19:24;67.70;;;25.60;;
56637;SDS011;42507;51.982;20.140;2024-01-11T03:21:50;66.10;;;25.00;;
56637;SDS011;42507;51.982;20.140;2024-01-11T03:24:16;64.50;;;25.30;;
56637;SDS011;42507;51.982;20.140;2024-01-11T03:26:42;72.10;;;25.40;;
56637;SDS011;42507;51.982;20.140;2024-01-11T03:29:08;59.40;;;24.20;;
56637;SDS011;42507;51.982;20.140;2024-01-11T03:31:34;60.60;;;25.90;;
56637;SDS011;42507;51.982;20.140;2024-01-11T03:34:00;53.40;;;22.40;;
56637;SDS011;42507;51.982;20.140;2024-01-11T03:36:26;64.80;;;27.00;;
56637;SDS011;42507;51.982;20.140;2024-01-11T03:38:52;56.20;;;25.70;;
56637;SDS011;42507;51.982;20.140;2024-01-11T03:41:18;72.30;;;29.40;;
56637;SDS011;42507;51.982;20.140;2024-01-11T03:43:45;88.70;;;44.90;;
56637;SDS011;42507;51.982;20.140;2024-01-11T03:46:11;66.80;;;29.20;;
56637;SDS011;42507;51.982;20.140;2024-01-11T03:48:36;85.30;;;39.00;;
56637;SDS011;42507;51.982;20.140;2024-01-11T03:51:02;73.90;;;29.00;;
56637;SDS011;42507;51.982;20.140;2024-01-11T03:53:29;83.50;;;35.80;;
56637;SDS011;42507;51.982;20.140;2024-01-11T03:55:54;83.80;;;33.00;;
56637;SDS011;42507;51.982;20.140;2024-01-11T03:58:20;79.70;;;31.80;;
56637;SDS011;42507;51.982;20.140;2024-01-11T04:00:46;78.80;;;29.70;;
56637;SDS011;42507;51.982;20.140;2024-01-11T04:03:12;91.20;;;33.60;;
56637;SDS011;42507;51.982;20.140;2024-01-11T04:05:38;87.80;;;36.60;;
56637;SDS011;42507;51.982;20.140;2024-01-11T04:08:05;87.30;;;39.40;;
56637;SDS011;42507;51.982;20.140;2024-01-11T04:10:32;79.40;;;33.00;;
56637;SDS011;42507;51.982;20.140;2024-01-11T04:12:58;74.30;;;31.10;;
56637;SDS011;42507;51.982;20.140;2024-01-11T04:15:24;88.10;;;32.70;;
56637;SDS011;42507;51.982;20.140;2024-01-11T04:17:50;82.60;;;33.50;;
56637;SDS011;42507;51.982;20.140;2024-01-11T04:20:16;82.60;;;31.40;;
56637;SDS011;42507;51.982;20.140;2024-01-11T04:22:42;87.30;;;34.80;;
56637;SDS011;42507;51.982;20.140;2024-01-11T04:25:08;92.50;;;34.70;;
56637;SDS011;42507;51.982;20.140;2024-01-11T04:27:34;88.10;;;35.30;;
56637;SDS011;42507;51.982;20.140;2024-01-11T04:30:00;81.20;;;32.00;;
56637;SDS011;42507;51.982;20.140;2024-01-11T04:32:26;81.50;;;31.00;;
56637;SDS011;42507;51.982;20.140;2024-01-11T04:34:52;87.20;;;32.80;;
56637;SDS011;42507;51.982;20.140;2024-01-11T04:37:18;81.80;;;31.30;;
56637;SDS011;42507;51.982;20.140;2024-01-11T04:39:44;83.30;;;32.50;;
56637;SDS011;42507;51.982;20.140;2024-01-11T04:42:10;70.20;;;29.00;;
56637;SDS011;42507;51.982;20.140;2024-01-11T04:44:36;81.00;;;35.10;;
56637;SDS011;42507;51.982;20.140;2024-01-11T04:47:02;76.60;;;30.50;;
56637;SDS011;42507;51.982;20.140;2024-01-11T04:49:28;80.40;;;30.80;;
56637;SDS011;42507;51.982;20.140;2024-01-11T04:51:54;80.90;;;33.30;;
56637;SDS011;42507;51.982;20.140;2024-01-11T04:54:20;64.60;;;29.70;;
56637;SDS011;42507;51.982;20.140;2024-01-11T04:56:46;78.70;;;31.70;;
56637;SDS011;42507;51.982;20.140;2024-01-11T04:59:12;79.30;;;31.60;;
56637;SDS011;42507;51.982;20.140;2024-01-11T05:01:38;76.90;;;31.20;;
56637;SDS011;42507;51.982;20.140;2024-01-11T05:04:06;63.90;;;25.20;;
56637;SDS011;42507;51.982;20.140;2024-01-11T05:06:32;72.00;;;28.00;;
56637;SDS011;42507;51.982;20.140;2024-01-11T05:08:58;74.60;;;29.30;;
56637;SDS011;42507;51.982;20.140;2024-01-11T05:11:24;70.80;;;27.40;;
56637;SDS011;42507;51.982;20.140;2024-01-11T05:13:50;70.60;;;28.00;;
56637;SDS011;42507;51.982;20.140;2024-01-11T05:16:26;64.50;;;27.30;;
56637;SDS011;42507;51.982;20.140;2024-01-11T05:18:54;55.40;;;23.20;;
56637;SDS011;42507;51.982;20.140;2024-01-11T05:21:21;71.00;;;27.90;;
56637;SDS011;42507;51.982;20.140;2024-01-11T05:23:48;68.50;;;29.10;;
56637;SDS011;42507;51.982;20.140;2024-01-11T05:26:15;63.20;;;26.20;;
56637;SDS011;42507;51.982;20.140;2024-01-11T05:28:41;69.40;;;28.80;;
56637;SDS011;42507;51.982;20.140;2024-01-11T05:31:11;73.60;;;28.70;;
56637;SDS011;42507;51.982;20.140;2024-01-11T05:33:38;71.60;;;29.40;;
56637;SDS011;42507;51.982;20.140;2024-01-11T05:36:05;74.90;;;28.60;;
56637;SDS011;42507;51.982;20.140;2024-01-11T05:38:31;70.90;;;30.60;;
56637;SDS011;42507;51.982;20.140;2024-01-11T05:40:57;76.20;;;29.80;;
56637;SDS011;42507;51.982;20.140;2024-01-11T05:43:23;70.60;;;28.60;;
56637;SDS011;42507;51.982;20.140;2024-01-11T05:45:50;52.30;;;24.00;;
56637;SDS011;42507;51.982;20.140;2024-01-11T05:48:16;72.70;;;28.10;;
56637;SDS011;42507;51.982;20.140;2024-01-11T05:50:45;75.50;;;30.70;;
56637;SDS011;42507;51.982;20.140;2024-01-11T05:53:11;75.10;;;30.70;;
56637;SDS011;42507;51.982;20.140;2024-01-11T05:55:38;73.40;;;29.80;;
56637;SDS011;42507;51.982;20.140;2024-01-11T05:58:05;82.40;;;31.90;;
56637;SDS011;42507;51.982;20.140;2024-01-11T06:00:31;69.00;;;27.00;;
56637;SDS011;42507;51.982;20.140;2024-01-11T06:02:57;74.80;;;29.80;;
56637;SDS011;42507;51.982;20.140;2024-01-11T06:05:23;80.90;;;31.80;;
56637;SDS011;42507;51.982;20.140;2024-01-11T06:07:49;82.70;;;30.70;;
56637;SDS011;42507;51.982;20.140;2024-01-11T06:10:15;73.50;;;28.20;;
56637;SDS011;42507;51.982;20.140;2024-01-11T06:12:42;62.90;;;24.50;;
56637;SDS011;42507;51.982;20.140;2024-01-11T06:15:09;70.60;;;28.60;;
56637;SDS011;42507;51.982;20.140;2024-01-11T06:17:35;72.00;;;27.20;;
56637;SDS011;42507;51.982;20.140;2024-01-11T06:20:01;61.50;;;25.00;;
56637;SDS011;42507;51.982;20.140;2024-01-11T06:22:29;76.10;;;29.80;;
56637;SDS011;42507;51.982;20.140;2024-01-11T06:24:55;68.00;;;28.30;;
56637;SDS011;42507;51.982;20.140;2024-01-11T06:27:21;76.80;;;30.90;;
56637;SDS011;42507;51.982;20.140;2024-01-11T06:29:46;77.50;;;29.80;;
56637;SDS011;42507;51.982;20.140;2024-01-11T06:32:12;74.40;;;29.20;;
56637;SDS011;42507;51.982;20.140;2024-01-11T06:34:38;84.90;;;33.40;;
56637;SDS011;42507;51.982;20.140;2024-01-11T06:37:07;76.70;;;30.10;;
56637;SDS011;42507;51.982;20.140;2024-01-11T06:39:33;76.70;;;28.70;;
56637;SDS011;42507;51.982;20.140;2024-01-11T06:41:59;78.10;;;29.70;;
56637;SDS011;42507;51.982;20.140;2024-01-11T06:44:25;83.20;;;30.80;;
56637;SDS011;42507;51.982;20.140;2024-01-11T06:46:51;73.00;;;28.20;;
56637;SDS011;42507;51.982;20.140;2024-01-11T06:49:17;69.30;;;27.50;;
56637;SDS011;42507;51.982;20.140;2024-01-11T06:51:43;70.80;;;26.40;;
56637;SDS011;42507;51.982;20.140;2024-01-11T06:54:09;70.30;;;28.40;;
56637;SDS011;42507;51.982;20.140;2024-01-11T06:56:35;73.50;;;28.90;;
56637;SDS011;42507;51.982;20.140;2024-01-11T06:59:01;69.70;;;26.20;;
56637;SDS011;42507;51.982;20.140;2024-01-11T07:01:27;70.70;;;26.70;;
56637;SDS011;42507;51.982;20.140;2024-01-11T07:03:55;66.30;;;25.00;;
56637;SDS011;42507;51.982;20.140;2024-01-11T07:06:21;67.00;;;25.00;;
56637;SDS011;42507;51.982;20.140;2024-01-11T07:08:48;55.50;;;20.80;;
56637;SDS011;42507;51.982;20.140;2024-01-11T07:11:14;69.00;;;25.40;;
56637;SDS011;42507;51.982;20.140;2024-01-11T07:13:40;68.60;;;24.70;;
56637;SDS011;42507;51.982;20.140;2024-01-11T07:16:06;68.40;;;25.20;;
56637;SDS011;42507;51.982;20.140;2024-01-11T07:18:32;62.20;;;24.00;;
56637;SDS011;42507;51.982;20.140;2024-01-11T07:20:58;59.50;;;21.50;;
56637;SDS011;42507;51.982;20.140;2024-01-11T07:23:25;59.80;;;23.80;;
56637;SDS011;42507;51.982;20.140;2024-01-11T07:25:51;59.40;;;23.20;;
56637;SDS011;42507;51.982;20.140;2024-01-11T07:28:17;60.00;;;22.60;;
56637;SDS011;42507;51.982;20.140;2024-01-11T07:30:43;52.00;;;20.30;;
56637;SDS011;42507;51.982;20.140;2024-01-11T07:33:09;57.10;;;21.50;;
56637;SDS011;42507;51.982;20.140;2024-01-11T07:35:36;49.00;;;19.40;;
56637;SDS011;42507;51.982;20.140;2024-01-11T07:38:02;57.50;;;22.10;;
56637;SDS011;42507;51.982;20.140;2024-01-11T07:40:28;65.70;;;24.60;;
56637;SDS011;42507;51.982;20.140;2024-01-11T07:42:54;55.70;;;20.50;;
56637;SDS011;42507;51.982;20.140;2024-01-11T07:45:20;64.50;;;22.80;;
56637;SDS011;42507;51.982;20.140;2024-01-11T07:47:46;55.90;;;21.40;;
56637;SDS011;42507;51.982;20.140;2024-01-11T07:50:12;62.40;;;21.80;;
56637;SDS011;42507;51.982;20.140;2024-01-11T07:52:38;55.30;;;20.40;;
56637;SDS011;42507;51.982;20.140;2024-01-11T07:55:07;57.90;;;20.80;;
56637;SDS011;42507;51.982;20.140;2024-01-11T07:57:34;63.50;;;21.90;;
56637;SDS011;42507;51.982;20.140;2024-01-11T08:00:00;57.70;;;21.10;;
56637;SDS011;42507;51.982;20.140;2024-01-11T08:02:26;63.70;;;22.30;;
56637;SDS011;42507;51.982;20.140;2024-01-11T08:04:52;60.40;;;22.70;;
56637;SDS011;42507;51.982;20.140;2024-01-11T08:07:18;60.70;;;21.80;;
56637;SDS011;42507;51.982;20.140;2024-01-11T08:09:44;55.50;;;20.20;;
56637;SDS011;42507;51.982;20.140;2024-01-11T08:12:16;61.50;;;22.80;;
56637;SDS011;42507;51.982;20.140;2024-01-11T08:14:43;63.30;;;21.80;;
56637;SDS011;42507;51.982;20.140;2024-01-11T08:17:09;61.60;;;21.20;;
56637;SDS011;42507;51.982;20.140;2024-01-11T08:19:35;58.30;;;19.40;;
56637;SDS011;42507;51.982;20.140;2024-01-11T08:22:01;50.70;;;19.00;;
56637;SDS011;42507;51.982;20.140;2024-01-11T08:24:28;46.90;;;18.50;;
56637;SDS011;42507;51.982;20.140;2024-01-11T08:26:54;53.60;;;19.50;;
56637;SDS011;42507;51.982;20.140;2024-01-11T08:29:20;53.40;;;18.60;;
56637;SDS011;42507;51.982;20.140;2024-01-11T08:31:46;61.90;;;21.60;;
56637;SDS011;42507;51.982;20.140;2024-01-11T08:34:12;47.10;;;17.10;;
56637;SDS011;42507;51.982;20.140;2024-01-11T08:36:38;58.60;;;20.20;;
56637;SDS011;42507;51.982;20.140;2024-01-11T08:39:07;59.90;;;19.90;;
56637;SDS011;42507;51.982;20.140;2024-01-11T08:41:38;54.00;;;18.70;;
56637;SDS011;42507;51.982;20.140;2024-01-11T08:44:04;51.00;;;17.90;;
56637;SDS011;42507;51.982;20.140;2024-01-11T08:46:31;56.90;;;18.80;;
56637;SDS011;42507;51.982;20.140;2024-01-11T08:49:02;58.50;;;20.60;;
56637;SDS011;42507;51.982;20.140;2024-01-11T08:51:30;54.70;;;18.10;;
56637;SDS011;42507;51.982;20.140;2024-01-11T08:53:58;56.00;;;18.20;;
56637;SDS011;42507;51.982;20.140;2024-01-11T08:56:24;58.80;;;20.50;;
56637;SDS011;42507;51.982;20.140;2024-01-11T08:58:51;50.60;;;18.60;;
56637;SDS011;42507;51.982;20.140;2024-01-11T09:01:17;55.30;;;18.50;;
56637;SDS011;42507;51.982;20.140;2024-01-11T09:03:46;48.00;;;18.10;;
56637;SDS011;42507;51.982;20.140;2024-01-11T09:06:13;53.80;;;18.80;;
56637;SDS011;42507;51.982;20.140;2024-01-11T09:08:39;55.80;;;18.40;;
56637;SDS011;42507;51.982;20.140;2024-01-11T09:11:07;55.10;;;18.20;;
56637;SDS011;42507;51.982;20.140;2024-01-11T09:13:36;59.20;;;20.20;;
56637;SDS011;42507;51.982;20.140;2024-01-11T09:16:02;57.70;;;19.20;;
56637;SDS011;42507;51.982;20.140;2024-01-11T09:18:28;59.70;;;21.10;;
56637;SDS011;42507;51.982;20.140;2024-01-11T09:20:54;58.10;;;18.90;;
56637;SDS011;42507;51.982;20.140;2024-01-11T09:23:21;60.80;;;21.60;;
56637;SDS011;42507;51.982;20.140;2024-01-11T09:25:47;54.00;;;19.30;;
56637;SDS011;42507;51.982;20.140;2024-01-11T09:28:13;64.20;;;21.60;;
56637;SDS011;42507;51.982;20.140;2024-01-11T09:30:39;55.40;;;19.30;;
56637;SDS011;42507;51.982;20.140;2024-01-11T09:33:05;60.20;;;19.70;;
56637;SDS011;42507;51.982;20.140;2024-01-11T09:35:31;59.30;;;20.20;;
56637;SDS011;42507;51.982;20.140;2024-01-11T09:37:57;57.70;;;18.90;;
56637;SDS011;42507;51.982;20.140;2024-01-11T09:40:23;59.80;;;21.60;;
56637;SDS011;42507;51.982;20.140;2024-01-11T09:42:49;61.10;;;20.40;;
56637;SDS011;42507;51.982;20.140;2024-01-11T09:45:16;53.50;;;18.60;;
56637;SDS011;42507;51.982;20.140;2024-01-11T09:47:45;45.10;;;16.90;;
56637;SDS011;42507;51.982;20.140;2024-01-11T09:50:13;51.70;;;17.50;;
56637;SDS011;42507;51.982;20.140;2024-01-11T09:52:47;56.10;;;17.90;;
56637;SDS011;42507;51.982;20.140;2024-01-11T09:55:14;52.20;;;19.40;;
56637;SDS011;42507;51.982;20.140;2024-01-11T09:57:43;55.20;;;18.70;;
56637;SDS011;42507;51.982;20.140;2024-01-11T10:00:13;53.80;;;19.60;;
56637;SDS011;42507;51.982;20.140;2024-01-11T10:02:42;68.70;;;21.90;;
56637;SDS011;42507;51.982;20.140;2024-01-11T10:05:08;51.30;;;18.50;;
56637;SDS011;42507;51.982;20.140;2024-01-11T10:07:34;78.20;;;24.00;;
56637;SDS011;42507;51.982;20.140;2024-01-11T10:10:01;67.50;;;21.40;;
56637;SDS011;42507;51.982;20.140;2024-01-11T10:12:29;62.30;;;20.40;;
56637;SDS011;42507;51.982;20.140;2024-01-11T10:14:55;72.20;;;20.90;;
56637;SDS011;42507;51.982;20.140;2024-01-11T10:17:21;83.00;;;24.10;;
56637;SDS011;42507;51.982;20.140;2024-01-11T10:19:47;54.40;;;19.80;;
56637;SDS011;42507;51.982;20.140;2024-01-11T10:22:13;39.00;;;15.30;;
56637;SDS011;42507;51.982;20.140;2024-01-11T10:24:42;50.90;;;16.90;;
56637;SDS011;42507;51.982;20.140;2024-01-11T10:27:08;47.90;;;16.10;;
56637;SDS011;42507;51.982;20.140;2024-01-11T10:29:35;49.70;;;17.00;;
56637;SDS011;42507;51.982;20.140;2024-01-11T10:32:03;52.30;;;16.50;;
56637;SDS011;42507;51.982;20.140;2024-01-11T10:34:30;56.20;;;17.70;;
56637;SDS011;42507;51.982;20.140;2024-01-11T10:36:56;48.20;;;17.10;;
56637;SDS011;42507;51.982;20.140;2024-01-11T10:39:24;52.50;;;18.30;;
56637;SDS011;42507;51.982;20.140;2024-01-11T10:41:58;50.80;;;18.30;;
56637;SDS011;42507;51.982;20.140;2024-01-11T10:44:30;55.80;;;20.60;;
56637;SDS011;42507;51.982;20.140;2024-01-11T10:46:59;53.50;;;18.30;;
56637;SDS011;42507;51.982;20.140;2024-01-11T10:49:28;56.90;;;20.60;;
56637;SDS011;42507;51.982;20.140;2024-01-11T10:51:59;56.30;;;18.20;;
56637;SDS011;42507;51.982;20.140;2024-01-11T10:54:27;58.80;;;20.40;;
56637;SDS011;42507;51.982;20.140;2024-01-11T10:56:54;60.70;;;21.30;;
56637;SDS011;42507;51.982;20.140;2024-01-11T10:59:21;53.50;;;18.90;;
56637;SDS011;42507;51.982;20.140;2024-01-11T11:01:55;64.70;;;23.00;;
56637;SDS011;42507;51.982;20.140;2024-01-11T11:04:22;53.00;;;19.50;;
56637;SDS011;42507;51.982;20.140;2024-01-11T11:06:50;58.60;;;19.50;;
56637;SDS011;42507;51.982;20.140;2024-01-11T11:09:17;52.40;;;18.70;;
56637;SDS011;42507;51.982;20.140;2024-01-11T11:11:44;51.20;;;18.30;;
56637;SDS011;42507;51.982;20.140;2024-01-11T11:14:12;55.20;;;18.80;;
56637;SDS011;42507;51.982;20.140;2024-01-11T11:16:40;62.00;;;22.80;;
56637;SDS011;42507;51.982;20.140;2024-01-11T11:19:06;74.00;;;27.90;;
56637;SDS011;42507;51.982;20.140;2024-01-11T11:21:32;53.40;;;20.30;;
56637;SDS011;42507;51.982;20.140;2024-01-11T11:24:07;55.00;;;18.50;;
56637;SDS011;42507;51.982;20.140;2024-01-11T11:26:33;51.60;;;18.20;;
56637;SDS011;42507;51.982;20.140;2024-01-11T11:29:00;59.40;;;19.80;;
56637;SDS011;42507;51.982;20.140;2024-01-11T11:31:36;54.50;;;19.00;;
56637;SDS011;42507;51.982;20.140;2024-01-11T11:34:05;54.70;;;19.30;;
56637;SDS011;42507;51.982;20.140;2024-01-11T11:36:35;58.70;;;19.40;;
56637;SDS011;42507;51.982;20.140;2024-01-11T11:39:01;56.50;;;18.30;;
56637;SDS011;42507;51.982;20.140;2024-01-11T11:41:30;66.50;;;20.20;;
56637;SDS011;42507;51.982;20.140;2024-01-11T11:44:05;53.80;;;18.70;;
56637;SDS011;42507;51.982;20.140;2024-01-11T11:46:32;56.00;;;19.90;;
56637;SDS011;42507;51.982;20.140;2024-01-11T11:48:58;53.70;;;18.90;;
56637;SDS011;42507;51.982;20.140;2024-01-11T11:51:25;60.30;;;19.50;;
56637;SDS011;42507;51.982;20.140;2024-01-11T11:53:52;60.20;;;21.50;;
56637;SDS011;42507;51.982;20.140;2024-01-11T11:56:19;59.90;;;18.60;;
56637;SDS011;42507;51.982;20.140;2024-01-11T11:58:46;56.70;;;19.00;;
56637;SDS011;42507;51.982;20.140;2024-01-11T12:01:14;64.30;;;20.10;;
56637;SDS011;42507;51.982;20.140;2024-01-11T12:03:43;64.80;;;20.00;;
56637;SDS011;42507;51.982;20.140;2024-01-11T12:06:15;64.00;;;19.40;;
56637;SDS011;42507;51.982;20.140;2024-01-11T12:08:45;61.00;;;20.50;;
56637;SDS011;42507;51.982;20.140;2024-01-11T12:11:13;54.00;;;18.30;;
56637;SDS011;42507;51.982;20.140;2024-01-11T12:13:47;60.00;;;19.50;;
56637;SDS011;42507;51.982;20.140;2024-01-11T12:16:13;55.20;;;19.40;;
56637;SDS011;42507;51.982;20.140;2024-01-11T12:18:40;59.20;;;18.60;;
56637;SDS011;42507;51.982;20.140;2024-01-11T12:21:07;50.40;;;17.50;;
56637;SDS011;42507;51.982;20.140;2024-01-11T12:23:34;52.30;;;18.40;;
56637;SDS011;42507;51.982;20.140;2024-01-11T12:26:01;51.40;;;15.90;;
56637;SDS011;42507;51.982;20.140;2024-01-11T12:28:30;56.70;;;19.10;;
56637;SDS011;42507;51.982;20.140;2024-01-11T12:30:58;55.00;;;18.30;;
56637;SDS011;42507;51.982;20.140;2024-01-11T12:33:23;49.40;;;15.70;;
56637;SDS011;42507;51.982;20.140;2024-01-11T12:35:50;61.70;;;19.40;;
56637;SDS011;42507;51.982;20.140;2024-01-11T12:38:17;55.10;;;17.50;;
56637;SDS011;42507;51.982;20.140;2024-01-11T12:40:43;55.30;;;19.00;;
56637;SDS011;42507;51.982;20.140;2024-01-11T12:43:11;61.00;;;19.10;;
56637;SDS011;42507;51.982;20.140;2024-01-11T12:45:37;72.30;;;21.50;;
56637;SDS011;42507;51.982;20.140;2024-01-11T12:48:06;64.30;;;20.70;;
56637;SDS011;42507;51.982;20.140;2024-01-11T12:50:33;51.80;;;17.00;;
56637;SDS011;42507;51.982;20.140;2024-01-11T12:53:12;60.30;;;18.40;;
56637;SDS011;42507;51.982;20.140;2024-01-11T12:55:44;51.60;;;17.10;;
56637;SDS011;42507;51.982;20.140;2024-01-11T12:58:14;69.90;;;21.60;;
56637;SDS011;42507;51.982;20.140;2024-01-11T13:00:45;68.10;;;21.40;;
56637;SDS011;42507;51.982;20.140;2024-01-11T13:03:11;69.60;;;21.10;;
56637;SDS011;42507;51.982;20.140;2024-01-11T13:05:37;63.30;;;20.80;;
56637;SDS011;42507;51.982;20.140;2024-01-11T13:08:09;55.40;;;19.10;;
56637;SDS011;42507;51.982;20.140;2024-01-11T13:10:36;57.40;;;19.60;;
56637;SDS011;42507;51.982;20.140;2024-01-11T13:13:03;64.50;;;20.60;;
56637;SDS011;42507;51.982;20.140;2024-01-11T13:15:30;63.70;;;21.80;;
56637;SDS011;42507;51.982;20.140;2024-01-11T13:18:00;65.20;;;19.50;;
56637;SDS011;42507;51.982;20.140;2024-01-11T13:20:26;72.00;;;23.20;;
56637;SDS011;42507;51.982;20.140;2024-01-11T13:23:12;69.40;;;22.70;;
56637;SDS011;42507;51.982;20.140;2024-01-11T13:25:42;60.60;;;20.10;;
56637;SDS011;42507;51.982;20.140;2024-01-11T13:28:09;58.80;;;20.10;;
56637;SDS011;42507;51.982;20.140;2024-01-11T13:30:37;64.20;;;21.40;;
56637;SDS011;42507;51.982;20.140;2024-01-11T13:33:05;72.70;;;21.90;;
56637;SDS011;42507;51.982;20.140;2024-01-11T13:35:32;66.80;;;21.60;;
56637;SDS011;42507;51.982;20.140;2024-01-11T13:38:02;67.40;;;22.70;;
56637;SDS011;42507;51.982;20.140;2024-01-11T13:40:32;68.90;;;23.00;;
56637;SDS011;42507;51.982;20.140;2024-01-11T13:42:58;78.90;;;25.00;;
56637;SDS011;42507;51.982;20.140;2024-01-11T13:45:25;56.60;;;20.20;;
56637;SDS011;42507;51.982;20.140;2024-01-11T13:47:52;65.20;;;22.30;;
56637;SDS011;42507;51.982;20.140;2024-01-11T13:50:22;70.00;;;24.10;;
56637;SDS011;42507;51.982;20.140;2024-01-11T13:52:49;66.40;;;22.70;;
56637;SDS011;42507;51.982;20.140;2024-01-11T13:55:16;72.20;;;22.10;;
56637;SDS011;42507;51.982;20.140;2024-01-11T13:57:43;61.30;;;20.90;;
56637;SDS011;42507;51.982;20.140;2024-01-11T14:00:09;70.70;;;23.30;;
56637;SDS011;42507;51.982;20.140;2024-01-11T14:02:37;69.60;;;23.00;;
56637;SDS011;42507;51.982;20.140;2024-01-11T14:05:03;63.50;;;21.80;;
56637;SDS011;42507;51.982;20.140;2024-01-11T14:07:31;66.30;;;23.00;;